Latest Weather Observations for Bourke

IDN60801

Issued at 12:05 pm EST Saturday 2 August 2014 (issued every 30 minutes, with the page automatically refreshed every 10 minutes)

About weather observations | Map of weather stations | Latest weather observations for NSW | Other Formats
Station Details ID: 048245 Name: BOURKE AIRPORT AWS Lat: -30.04 Lon: 145.95 Height: 107.3 m
Data from the previous 72 hours. | See also: Recent months at Bourke
Date/Time
EST
Temp
°C
App
Temp
°C
Dew
Point
Rel
Hum
%
Delta-T
°C
Wind Press
QNH
hPa
Press
MSL
hPa
Rain
since 9 am
mm
Dir
 
Spd
km/h
Gust
km/h
Spd
kts
Gust
kts
02/12:00pm 13.0 7.3 -3.7 31 6.3 S 17 24 9 13 1029.4 1029.4 0.0
02/11:30am 11.8 6.9 -3.5 34 5.8 SE 13 20 7 11 1029.8 - 0.0
02/11:00am 11.6 6.1 -2.2 38 5.3 S 17 24 9 13 1030.1 1030.1 0.0
02/10:30am 11.2 6.3 -0.3 45 4.6 S 15 22 8 12 1030.3 - 0.0
02/10:00am 9.7 4.8 -0.2 50 3.9 SSE 15 24 8 13 1030.3 1030.3 0.0
02/09:30am 8.7 3.2 0.4 56 3.3 S 19 24 10 13 1030.2 - 0.0
02/09:00am 7.5 2.3 0.0 59 2.9 S 17 24 9 13 1029.8 1029.8 0.0
02/08:30am 5.9 1.7 -0.6 63 2.5 SSW 11 17 6 9 1029.4 - 0.0
02/08:00am 3.6 1.1 -1.3 70 1.8 SSW 2 6 1 3 1028.8 1028.9 0.0
02/07:30am 0.9 -2.7 -3.7 71 1.6 WSW 6 9 3 5 1028.3 - 0.0
02/07:00am 1.4 -2.7 -2.7 74 1.4 SSW 9 9 5 5 1027.9 1028.0 0.0
02/06:30am 1.4 -2.7 -2.9 73 1.5 SSW 9 13 5 7 1027.6 - 0.0
02/06:00am 1.4 -3.1 -3.3 71 1.7 SSW 11 15 6 8 1027.1 1027.2 0.0
02/05:30am 1.4 -2.8 -3.5 70 1.7 SW 9 11 5 6 1026.7 - 0.0
02/05:00am 1.8 -2.8 -3.9 66 2.0 SW 11 13 6 7 1026.3 1026.3 0.0
02/04:30am 2.6 -1.6 -3.5 64 2.1 SW 9 13 5 7 1026.0 - 0.0
02/04:00am 2.9 -1.6 -3.2 64 2.1 SSW 11 15 6 8 1025.9 1025.9 0.0
02/03:30am 2.3 -1.9 -3.8 64 2.0 SSW 9 11 5 6 1026.0 - 0.0
02/03:00am 2.0 -2.3 -4.5 62 2.2 SW 9 11 5 6 1025.7 1025.7 0.0
02/02:30am 1.9 -2.1 -5.5 58 2.5 WSW 7 9 4 5 1025.5 - 0.0
02/02:00am 3.5 -0.8 -4.4 56 2.6 SW 9 13 5 7 1025.5 1025.5 0.0
02/01:30am 4.2 -0.1 -4.8 52 3.0 WSW 9 11 5 6 1025.4 - 0.0
02/01:00am 5.6 1.4 -3.7 51 3.2 SW 9 13 5 7 1025.1 1025.1 0.0
02/12:30am 5.3 0.7 -4.5 49 3.4 SW 11 15 6 8 1024.9 - 0.0
02/12:00am 5.7 1.1 -4.4 48 3.5 WSW 11 15 6 8 1024.6 1024.6 0.0
 
Date/Time
EST
Temp
°C
App
Temp
°C
Dew
Point
Rel
Hum
%
Delta-T
°C
Wind Press
QNH
hPa
Press
MSL
hPa
Rain
since 9 am
mm
Dir
 
Spd
km/h
Gust
km/h
Spd
kts
Gust
kts
01/11:30pm 6.7 2.0 -4.7 44 4.0 WSW 11 15 6 8 1024.5 - 0.0
01/11:00pm 7.6 2.9 -4.8 41 4.3 WSW 11 15 6 8 1024.3 1024.3 0.0
01/10:30pm 7.9 3.6 -4.5 41 4.4 WSW 9 11 5 6 1024.0 - 0.0
01/10:00pm 7.9 3.6 -4.8 40 4.4 WSW 9 13 5 7 1023.6 1023.6 0.0
01/09:30pm 8.1 3.7 -5.7 37 4.8 WSW 9 11 5 6 1023.4 - 0.0
01/09:00pm 9.3 4.9 -5.7 34 5.2 WSW 9 13 5 7 1023.0 1023.0 0.0
01/08:30pm 10.4 5.6 -5.6 32 5.7 WSW 11 17 6 9 1022.7 - 0.0
01/08:00pm 10.6 5.1 -5.0 33 5.6 SW 15 20 8 11 1022.2 1022.2 0.0
01/07:30pm 11.5 6.4 -5.0 31 6.0 WSW 13 20 7 11 1021.6 - 0.0
01/07:00pm 11.9 6.9 -4.2 32 6.0 WSW 13 20 7 11 1021.2 1021.2 0.0
01/06:30pm 12.6 7.2 -4.1 31 6.3 WSW 15 22 8 12 1020.6 - 0.0
01/06:00pm 13.4 8.1 -3.8 30 6.6 WSW 15 28 8 15 1019.9 1019.9 0.0
01/05:30pm 14.3 8.0 -3.9 28 7.0 WSW 20 35 11 19 1019.4 - 0.0
01/05:00pm 15.1 7.6 -4.2 26 7.5 WSW 26 44 14 24 1019.0 1019.1 0.0
01/04:30pm 15.7 7.9 -4.2 25 7.8 WSW 28 41 15 22 1018.6 - 0.0
01/04:00pm 16.1 7.9 -4.4 24 8.0 WSW 30 43 16 23 1018.3 1018.3 0.0
01/03:31pm 16.3 8.4 -4.8 23 8.2 WSW 28 46 15 25 1018.0 - 0.0
01/03:30pm 16.3 8.8 -4.8 23 8.2 WSW 26 44 14 24 1018.0 - 0.0
01/03:15pm 16.3 7.7 -4.3 24 8.1 WSW 32 50 17 27 1017.9 - 0.0
01/03:00pm 16.4 8.6 -4.2 24 8.1 WSW 28 43 15 23 1017.7 1017.7 0.0
01/02:37pm 16.3 7.7 -4.3 24 8.1 WSW 32 50 17 27 1017.6 - 0.0
01/02:30pm 16.8 8.6 -3.9 24 8.2 WSW 30 46 16 25 1017.5 - 0.0
01/02:23pm 16.6 8.7 -4.6 23 8.3 WSW 28 46 15 25 1017.5 - 0.0
01/02:00pm 16.4 7.8 -4.2 24 8.1 WSW 32 46 17 25 1017.4 1017.4 0.0
01/01:30pm 16.5 9.4 -4.7 23 8.3 WSW 24 43 13 23 1017.3 - 0.0
01/01:00pm 15.9 7.3 -4.6 24 7.9 W 32 46 17 25 1017.2 1017.2 0.0
01/12:36pm 16.0 8.2 -3.5 26 7.8 WSW 28 46 15 25 1017.4 - 0.0
01/12:30pm 16.1 9.2 -2.9 27 7.7 WSW 24 35 13 19 1017.3 - 0.0
01/12:05pm 15.7 8.2 -1.4 31 7.1 WSW 28 46 15 25 1017.5 - 0.0
01/12:00pm 16.1 8.3 -1.0 31 7.2 WSW 30 46 16 25 1017.5 1017.5 0.0
01/11:30am 15.5 9.2 1.3 38 6.2 WSW 24 39 13 21 1017.4 - 0.0
01/11:07am 15.3 8.4 2.5 42 5.7 WSW 28 46 15 25 1017.3 - 0.0
01/11:00am 15.5 8.9 2.3 41 5.9 WSW 26 46 14 25 1017.3 1017.3 0.0
01/10:30am 15.2 9.2 3.4 45 5.4 SW 24 35 13 19 1017.1 - 0.0
01/10:00am 15.1 9.5 3.6 46 5.3 SW 22 37 12 20 1016.8 1016.8 0.0
01/09:30am 14.4 9.1 3.2 47 5.1 SW 20 28 11 15 1016.5 - 0.0
01/09:00am 13.6 9.3 3.4 50 4.6 WSW 15 20 8 11 1016.2 1016.3 -
01/08:30am 12.9 8.9 3.0 51 4.4 WSW 13 17 7 9 1015.8 - -
01/08:00am 11.4 7.5 1.1 49 4.3 WSW 11 17 6 9 1015.4 1015.5 -
01/07:30am 10.7 6.7 0.2 48 4.3 WSW 11 17 6 9 1014.8 - -
01/07:00am 10.7 6.1 -0.7 45 4.6 WSW 13 20 7 11 1014.3 1014.4 -
01/06:30am 10.6 6.2 -2.1 41 4.9 W 11 15 6 8 1013.7 - -
01/06:00am 11.3 6.6 -4.8 32 5.9 W 11 13 6 7 1013.0 1013.1 -
01/05:30am 12.1 7.0 -4.9 30 6.3 W 13 19 7 10 1012.6 - -
01/05:00am 12.7 6.8 -5.3 28 6.6 W 17 22 9 12 1012.2 1012.3 -
01/04:30am 12.1 6.9 -5.8 28 6.5 WNW 13 20 7 11 1011.7 - -
01/04:00am 13.8 7.9 -5.3 26 7.1 W 17 26 9 14 1011.4 1011.4 -
01/03:30am 14.0 8.1 -5.2 26 7.2 NNW 17 22 9 12 1010.9 - -
01/03:00am 14.2 8.7 -5.5 25 7.4 NNW 15 20 8 11 1011.3 1011.3 0.0
01/02:30am 14.7 9.2 -5.1 25 7.5 NNW 15 20 8 11 1011.4 - -
01/02:00am 12.8 7.7 -4.8 29 6.6 NNW 13 17 7 9 1011.7 1011.7 -
01/01:30am 10.9 6.2 -5.1 32 5.8 NNW 11 13 6 7 1012.0 - -
01/01:00am 10.1 5.3 -6.2 31 5.7 NNW 11 13 6 7 1012.2 1012.3 -
01/12:30am 11.4 6.6 -6.0 29 6.2 NNW 11 13 6 7 1012.4 - -
01/12:00am 13.0 8.3 -5.5 27 6.8 NW 11 17 6 9 1012.4 1012.5 -
 
Date/Time
EST
Temp
°C
App
Temp
°C
Dew
Point
Rel
Hum
%
Delta-T
°C
Wind Press
QNH
hPa
Press
MSL
hPa
Rain
since 9 am
mm
Dir
 
Spd
km/h
Gust
km/h
Spd
kts
Gust
kts
31/11:30pm 12.9 8.1 -5.6 27 6.8 NW 11 13 6 7 1012.5 - -
31/11:00pm 12.4 7.6 -6.0 27 6.7 NNW 11 15 6 8 1012.5 1012.6 -
31/10:30pm 13.2 8.4 -5.9 26 7.0 NNW 11 13 6 7 1012.4 - -
31/10:00pm 12.5 7.3 -6.5 26 6.8 NNW 13 13 7 7 1012.3 1012.4 -
31/09:30pm 12.2 7.0 -6.2 27 6.6 NNW 13 13 7 7 1012.4 - -
31/09:00pm 10.6 5.8 -6.2 30 5.9 NNW 11 11 6 6 1012.6 1012.7 0.0
31/08:30pm 11.5 7.3 -7.8 25 6.6 NW 7 9 4 5 1012.7 - -
31/08:00pm 14.4 9.9 -6.4 23 7.6 NW 9 13 5 7 1012.7 1012.8 -
31/07:30pm 14.0 9.5 -6.8 23 7.5 NNW 9 11 5 6 1012.3 - -
31/07:00pm 14.3 9.8 -7.1 22 7.7 NW 9 11 5 6 1012.2 1012.3 -
31/06:30pm 17.1 12.5 -8.1 17 9.2 NW 9 11 5 6 1012.1 - -
31/06:00pm 20.3 15.4 -7.1 15 10.6 NW 11 15 6 8 1012.0 1012.1 -
31/05:30pm 22.6 17.4 -6.2 14 11.6 WNW 13 19 7 10 1012.0 - -
31/05:00pm 24.2 18.3 -5.9 13 12.4 NW 17 24 9 13 1012.1 1012.2 -
31/04:30pm 24.6 18.3 -5.6 13 12.5 NW 19 26 10 14 1012.1 - -
31/04:00pm 24.9 18.5 -5.4 13 12.7 WNW 20 30 11 16 1012.3 1012.4 -
31/03:30pm 25.1 17.9 -5.2 13 12.7 WNW 24 32 13 17 1012.6 - -
31/03:00pm 25.4 19.0 -5.0 13 12.9 WNW 20 30 11 16 1012.9 1013.0 -
31/02:30pm 25.0 18.2 -5.3 13 12.7 WNW 22 35 12 19 1013.1 - -
31/02:00pm 24.6 18.7 -5.6 13 12.5 WNW 17 20 9 11 1013.3 1013.4 -
31/01:30pm 24.8 18.1 -4.5 14 12.4 NNW 22 37 12 20 1013.6 - -
31/01:00pm 24.2 18.4 -5.0 14 12.2 NW 17 26 9 14 1014.5 1014.6 -
31/12:30pm 24.4 18.1 -3.9 15 12.1 NNW 20 30 11 16 1015.3 - -
31/12:00pm 23.1 16.8 -4.1 16 11.4 NNW 20 30 11 16 1016.2 1016.3 -
31/11:30am 23.4 16.4 -3.8 16 11.5 N 24 32 13 17 1017.0 - 0.0
31/11:00am 22.8 15.9 -2.7 18 11.0 NNW 24 32 13 17 1017.6 1017.7 0.0
31/10:30am 22.2 16.1 -2.5 19 10.6 NNW 20 28 11 15 1018.2 - 0.0
31/10:00am 20.8 14.7 -2.3 21 9.8 N 20 24 11 13 1018.3 1018.4 0.0
31/09:30am 18.8 12.8 -2.7 23 8.9 NNW 19 26 10 14 1018.2 - 0.0
31/09:00am 16.7 12.0 -1.9 28 7.7 N 13 17 7 9 1018.3 1018.4 0.0
31/08:30am 13.2 9.2 -2.3 34 6.1 N 9 13 5 7 1018.3 - 0.0
31/08:00am 8.6 5.1 -1.5 49 3.9 N 7 9 4 5 1018.3 1018.4 0.0
31/07:30am 4.6 0.3 -2.0 62 2.4 NNE 11 13 6 7 1018.2 - 0.0
31/07:00am 3.1 -0.9 -2.6 66 2.0 N 9 11 5 6 1018.1 1018.2 0.0
31/06:30am 2.9 -0.6 -3.0 65 2.0 NW 6 7 3 4 1017.9 - 0.0
31/06:00am 2.7 -1.4 -3.2 65 2.0 NW 9 11 5 6 1017.9 1018.0 0.0
31/05:30am 2.8 -1.4 -3.5 63 2.1 NW 9 11 5 6 1017.8 - 0.0
31/05:00am 4.1 0.4 -2.5 62 2.3 NW 7 9 4 5 1017.8 1017.9 0.0
31/04:30am 4.0 0.5 -2.6 62 2.3 NNW 6 6 3 3 1017.8 - 0.0
31/04:00am 4.3 0.9 -2.3 62 2.4 NNW 6 7 3 4 1017.9 1018.0 0.0
31/03:30am 4.8 1.3 -1.6 63 2.3 NW 7 9 4 5 1018.1 - 0.0
31/03:00am - - - - - N 11 11 6 6 1018.3 1018.4 0.0
31/02:30am - - - - - N 7 7 4 4 1018.5 - 0.0
31/02:00am - - - - - N 7 9 4 5 1018.6 1018.7 0.0
31/01:30am - - - - - CALM 0 4 0 2 1018.7 - 0.0
31/01:00am - - - - - NNW 6 7 3 4 1018.8 1018.9 0.0
31/12:30am - - - - - NNW 9 9 5 5 1019.1 - 0.0
31/12:00am - - - - - N 9 13 5 7 1019.1 1019.2 0.0
 
Date/Time
EST
Temp
°C
App
Temp
°C
Dew
Point
Rel
Hum
%
Delta-T
°C
Wind Press
QNH
hPa
Press
MSL
hPa
Rain
since 9 am
mm
Dir
 
Spd
km/h
Gust
km/h
Spd
kts
Gust
kts
30/11:30pm - - - - - NNE 9 11 5 6 1019.3 - 0.0
30/11:00pm - - - - - N 9 11 5 6 1019.4 1019.4 0.0
30/10:30pm - - - - - N 11 13 6 7 1019.7 - 0.0
30/10:00pm - - - - - NNE 13 15 7 8 1019.7 1019.7 0.0
30/09:30pm - - - - - NNE 4 9 2 5 1019.7 - 0.0
30/09:00pm - - - - - CALM 0 0 0 0 1019.7 1019.7 0.0
30/08:30pm - - - - - CALM 0 0 0 0 1019.8 - 0.0
30/08:00pm - - - - - CALM 0 0 0 0 1019.8 1019.9 0.0
30/07:30pm - - - - - SW 6 6 3 3 1019.6 - 0.0
30/07:00pm - - - - - SW 7 7 4 4 1019.6 1019.6 0.0
30/06:30pm - - - - - SW 4 6 2 3 1019.4 - 0.0
30/06:00pm - - - - - WSW 2 6 1 3 1019.1 1019.2 0.0
30/05:30pm - - - - - WNW 7 11 4 6 1019.0 - 0.0
30/05:00pm - - - - - WNW 9 15 5 8 1018.9 1019.0 0.0
30/04:30pm - - - - - W 11 17 6 9 1018.8 - 0.0
30/04:00pm - - - - - WSW 9 13 5 7 1018.7 1018.8 0.0
30/03:30pm - - - - - W 9 17 5 9 1018.7 - 0.0
30/03:00pm - - - - - W 13 22 7 12 1018.8 1018.9 0.0
30/02:30pm - - - - - W 13 24 7 13 1019.1 - 0.0
30/02:00pm - - - - - NW 11 20 6 11 1019.5 1019.5 0.0
30/01:30pm - - - - - WNW 13 24 7 13 1019.9 - 0.0
30/01:00pm - - - - - W 9 19 5 10 1020.4 1020.5 0.0
30/12:30pm - - - - - WSW 13 20 7 11 1021.0 - 0.0

Other Formats:

Comma delimited format used in spreadsheet applications
http://www.bom.gov.au/fwo/IDN60801/IDN60801.94703.axf

JavaScript Object Notation format (JSON) in row-major order
http://www.bom.gov.au/fwo/IDN60801/IDN60801.94703.json